To NAV CANADA Home Page Login to a new session Search on AWWS site Feedback and Comments Disclaimer Vers la page française équivalente Tips FAQ What's new on the site To the Forecasts and Observations / NOTAM section To "File a Flight Plan" website Publications and other links Update of the User's profile FIC Telephone Numbers My Weather Data Folder Route Weather Data Regional Weather Data Local Weather Data To the Forecasts and Observations / NOTAM section
Request Generated 03/28/2017 at 02:21:09 UTC . Weather information available at that time is displayed.

METAR/TAF

KITCHENER/WATERLOO/ON    (show WxCam)

SPECI CYKF 280218Z AUTO 26004KT 2SM -RA BR SCT005 BKN010 OVC016 10/09
A2990 RMK VIS VRB 1 3/4-3 SLP131=
SPECI CYKF 280217Z AUTO 27005KT 2SM -RA BR BKN005 BKN010 OVC016 10/09
A2990 RMK VIS VRB 1 3/4-3 SLP132=
SPECI CYKF 280213Z AUTO 26006KT 2SM -RA BR SCT005 BKN010 OVC018 10/09
A2990 RMK SLP132=
METAR CYKF 280200Z AUTO 26006KT 1 3/4SM -RA BR FEW005 BKN010 OVC021
10/09 A2990 RMK SLP132=
SPECI CYKF 280150Z AUTO 27007KT 1 3/4SM -RA BR FEW010 OVC023 10/09
A2990 RMK SLP130=
SPECI CYKF 280148Z AUTO 28007KT 1 3/4SM BR FEW010 OVC023 10/09 A2990
RMK SLP130=
SPECI CYKF 280144Z AUTO 29007KT 2 1/4SM BR FEW010 OVC023 10/09 A2989
RMK SLP129=
SPECI CYKF 280143Z AUTO 30008KT 3SM BR OVC023 10/09 A2989 RMK SLP129=
SPECI CYKF 280127Z AUTO 30005KT 5SM BR BKN025 OVC031 10/09 A2989 RMK
SLP128=
METAR CYKF 280100Z AUTO 30006KT 9SM FEW012 SCT021 BKN029 OVC034 11/10
A2989 RMK SLP128=
SPECI CYKF 280049Z AUTO 30007KT 9SM FEW012 SCT017 BKN029 OVC034 11/10
A2988 RMK SLP126=
SPECI CYKF 280012Z AUTO 24004KT 7SM BKN012 BKN027 OVC075 10/10 A2988
RMK SLP125=
METAR CYKF 280000Z AUTO 22004KT 9SM FEW012 BKN029 BKN043 OVC075 11/10
A2988 RMK SLP125=

TAF AMD CYKF 280210Z 2802/2804 26006KT 11/2SM -RA BR BKN005 OVC020
TEMPO 2802/2804 6SM BR SCT005 OVC020
RMK FCST BASED ON AUTO OBS. NXT FCST WILL BE ISSUED AT 280945Z=
Your time UTC time
Weather data provided by Environment Canada and NAV CANADA